Hovedside
METAR-TAF:

METAR-TAF

Lufthavner :

Niamtougou, Togo

breddegrad: 09-46N, lengdegrad: 001-06E, høyde over havet: 342 m

Gjeldene værobservasjon

Denne rapporten ble laget for 2 timer og 52 minutter siden, klokken 18:00 UTC
Vind 3 kt fra Vest-nordvest, skiftende mellom Sørvest og Nord-nordvest
Temperatur 27°C
Luftfuktighet 70%
Trykk 1013 hPa
Sikt 10 km eller mer
Spredte skyer i en høyde av 700 ft

METAR: DXNG 251800Z 29003KT 230V340 9999 SCT007 27/21 Q1013

Tid: 20:52 (20:52 UTC)

Varsel

Denne rapporten ble laget for 9 timer og 52 minutter siden, klokken 11:00 UTC
Varsel gyldig fra 25. klokken 12 UTC til 26. klokken 18 UTC
Vind 5 kt fra skiftende retning
Sikt 10 km eller mer
Spredte skyer i en høyde av 600 ft
Sannsynlighet 30% :
Midlertidig
fra 25. klokken 15 UTC til 25. klokken 20 UTC
Brutte skyer i en høyde av 600 ft
Få skyer i en høyde av 1600 ft, Bygeskyer.
torden,

TAF: DXNG 251100Z 2512/2618 VRB05KT 9999 SCT006 PROB30 TEMPO 2515/2520 TS BKN006 FEW016CB

Værobservasjoner og værvarsel for over 4000 flyplasser (METAR- og TAF-rapporter).

Tilgjengelige stasjoner er representert av de røde og gule prikkene på kartet.

Hold musepekeren over prikken for å se navnet på stasjonen.

Klikk så for å se værobservasjoner og -varsler.

For å forandre kartet kan du klikke på den grønne knappen med svart kryss for å zoome inn, på den grønne knappen med strek for å zoome ut, eller på de grønne pilene for å se tilstøtende kart.


METAR-TAF: